createdAt,value
2023-01-02T00:01:03.483Z,15.05
2023-01-02T00:08:05.470Z,15.00
2023-01-02T00:15:07.350Z,15.02
2023-01-02T00:22:09.040Z,14.94
2023-01-02T00:29:10.695Z,14.86
2023-01-02T00:36:12.837Z,14.87
2023-01-02T00:43:14.449Z,14.75
2023-01-02T00:50:16.171Z,14.82
2023-01-02T00:57:17.751Z,14.79
2023-01-02T01:04:19.396Z,14.77
2023-01-02T01:11:21.130Z,14.81
2023-01-02T01:18:22.741Z,14.84
2023-01-02T01:25:24.355Z,14.71
2023-01-02T01:32:26.018Z,14.72
2023-01-02T01:39:27.760Z,14.67
2023-01-02T01:46:36.918Z,14.59
2023-01-02T01:53:38.575Z,14.60
2023-01-02T02:00:40.565Z,14.60
2023-01-02T02:07:44.956Z,14.64
2023-01-02T02:14:46.587Z,14.66
2023-01-02T02:22:09.930Z,14.76
2023-01-02T02:29:59.608Z,14.73
2023-01-02T02:37:08.100Z,14.76
2023-01-02T02:44:20.576Z,15.08
2023-01-02T02:52:03.516Z,15.36
2023-01-02T02:59:05.164Z,15.30
2023-01-02T03:06:18.880Z,15.28
2023-01-02T03:13:40.921Z,15.31
2023-01-02T03:20:45.354Z,15.31
2023-01-02T03:27:46.996Z,15.42
2023-01-02T03:34:48.743Z,15.35
2023-01-02T03:41:56.485Z,15.33
2023-01-02T03:49:12.147Z,15.40
2023-01-02T03:56:20.329Z,15.54
2023-01-02T04:03:26.111Z,15.52
2023-01-02T04:10:28.581Z,15.49
2023-01-02T04:17:31.837Z,15.51
2023-01-02T04:24:35.848Z,15.43
2023-01-02T04:31:42.437Z,15.43
2023-01-02T04:38:44.700Z,15.46
2023-01-02T04:45:50.292Z,15.53
2023-01-02T04:52:51.997Z,15.51
2023-01-02T04:59:53.609Z,15.47
2023-01-02T05:06:55.245Z,15.67
2023-01-02T05:13:57.729Z,15.80
2023-01-02T05:21:07.163Z,15.67
2023-01-02T05:28:08.851Z,15.70
2023-01-02T05:35:10.471Z,15.74
2023-01-02T05:42:12.098Z,15.64
2023-01-02T05:49:13.679Z,15.61
2023-01-02T05:56:16.859Z,15.66
2023-01-02T06:03:18.537Z,15.70
2023-01-02T06:10:20.132Z,15.83
2023-01-02T06:17:22.575Z,15.82
2023-01-02T06:24:24.184Z,15.77
2023-01-02T06:31:28.130Z,15.76
2023-01-02T06:38:29.894Z,15.76
2023-01-02T06:45:31.563Z,15.82
2023-01-02T06:52:33.221Z,15.92
2023-01-02T06:59:34.920Z,16.13
2023-01-02T07:06:36.515Z,16.04
2023-01-02T07:13:38.816Z,15.98
2023-01-02T07:20:40.402Z,15.95
2023-01-02T07:27:41.976Z,16.07
2023-01-02T07:34:43.614Z,16.45
2023-01-02T07:41:45.592Z,16.35
2023-01-02T07:48:50.374Z,16.39
2023-01-02T07:55:56.045Z,16.30
2023-01-02T08:02:57.683Z,16.46
2023-01-02T08:09:59.326Z,16.34
2023-01-02T08:17:00.944Z,16.56
2023-01-02T08:24:02.796Z,16.62
2023-01-02T08:31:12.300Z,16.62
2023-01-02T08:38:14.383Z,16.46
2023-01-02T08:45:16.413Z,16.62
2023-01-02T08:52:18.020Z,16.62
2023-01-02T08:59:20.059Z,16.92
2023-01-02T09:06:22.780Z,16.76
2023-01-02T09:13:24.434Z,16.97
2023-01-02T09:20:26.301Z,17.03
2023-01-02T09:27:27.930Z,17.20
2023-01-02T09:34:29.580Z,17.14
2023-01-02T09:41:39.685Z,17.32
2023-01-02T09:48:41.191Z,17.39
2023-01-02T09:55:42.755Z,17.38
2023-01-02T10:02:56.402Z,17.51
2023-01-02T10:10:10.639Z,17.65
2023-01-02T10:17:13.160Z,17.23
2023-01-02T10:24:25.489Z,17.18
2023-01-02T10:31:43.771Z,17.95
2023-01-02T10:38:45.434Z,17.94
2023-01-02T10:45:47.214Z,17.93
2023-01-02T10:52:53.378Z,17.97
2023-01-02T10:59:57.252Z,18.24
2023-01-02T11:07:00.647Z,18.30
2023-01-02T11:14:07.170Z,18.24
2023-01-02T11:21:08.826Z,18.22
2023-01-02T11:28:22.453Z,18.02
2023-01-02T11:35:54.319Z,17.99
2023-01-02T11:43:16.555Z,18.14
2023-01-02T11:50:27.833Z,17.82
2023-01-02T11:57:36.099Z,18.09
2023-01-02T12:04:37.771Z,17.90
2023-01-02T12:11:45.174Z,17.97
2023-01-02T12:19:07.877Z,17.95
2023-01-02T12:26:14.022Z,17.88
2023-01-02T12:33:19.411Z,17.98
2023-01-02T12:40:49.298Z,17.83
2023-01-02T12:47:57.446Z,18.22
2023-01-02T12:55:17.065Z,18.00
2023-01-02T13:02:44.874Z,17.91
2023-01-02T13:09:46.657Z,17.57
2023-01-02T13:16:56.133Z,17.74
2023-01-02T13:23:57.794Z,17.74
2023-01-02T13:31:44.089Z,17.65
2023-01-02T13:38:28.880Z,18.00
2023-01-02T13:45:34.943Z,17.93
2023-01-02T13:52:36.557Z,17.92
2023-01-02T13:59:42.804Z,17.84
2023-01-02T14:06:53.581Z,17.85
2023-01-02T14:13:55.842Z,17.86
2023-01-02T14:20:57.629Z,17.73
2023-01-02T14:28:03.546Z,17.76
2023-01-02T14:35:14.268Z,17.81
2023-01-02T14:42:52.688Z,18.06
2023-01-02T14:49:58.319Z,17.90
2023-01-02T14:57:26.878Z,17.98
2023-01-02T15:04:41.165Z,18.01
2023-01-02T15:12:14.793Z,18.08
2023-01-02T15:19:22.018Z,18.05
2023-01-02T15:26:33.519Z,17.68
2023-01-02T15:33:35.938Z,17.74
2023-01-02T15:40:39.554Z,17.73
2023-01-02T15:47:45.114Z,17.53
2023-01-02T15:54:46.937Z,17.47
2023-01-02T16:01:48.683Z,17.31
2023-01-02T16:08:55.052Z,17.30
2023-01-02T16:16:16.313Z,17.09
2023-01-02T16:23:19.823Z,17.12
2023-01-02T16:30:28.502Z,16.95
2023-01-02T16:37:34.864Z,17.07
2023-01-02T16:44:36.583Z,16.88
2023-01-02T16:51:42.661Z,16.73
2023-01-02T16:58:44.468Z,16.76
2023-01-02T17:06:01.337Z,16.66
2023-01-02T17:13:04.383Z,16.43
2023-01-02T17:20:07.460Z,16.18
2023-01-02T17:27:09.093Z,16.43
2023-01-02T17:34:11.070Z,16.32
2023-01-02T17:41:12.679Z,16.27
2023-01-02T17:48:17.326Z,16.21
2023-01-02T17:55:23.594Z,16.18
2023-01-02T18:02:25.345Z,15.96
2023-01-02T18:09:27.516Z,16.10
2023-01-02T18:16:33.515Z,16.03
2023-01-02T18:23:35.270Z,16.05
2023-01-02T18:30:36.979Z,15.79
2023-01-02T18:37:38.895Z,15.83
2023-01-02T18:44:41.213Z,15.74
2023-01-02T18:51:42.884Z,15.76
2023-01-02T18:59:06.346Z,15.70
2023-01-02T19:06:17.202Z,15.51
2023-01-02T19:13:31.456Z,15.50
2023-01-02T19:20:33.167Z,15.25
2023-01-02T19:27:37.015Z,15.45
2023-01-02T19:34:46.660Z,15.43
2023-01-02T19:42:06.819Z,15.27
2023-01-02T19:49:08.457Z,15.29
2023-01-02T19:56:10.061Z,15.11
2023-01-02T20:03:12.277Z,15.21
2023-01-02T20:10:14.047Z,15.04
2023-01-02T20:17:15.765Z,15.04
2023-01-02T20:24:17.660Z,14.99
2023-01-02T20:31:19.357Z,14.94
2023-01-02T20:38:21.395Z,14.91
2023-01-02T20:45:23.022Z,14.87
2023-01-02T20:52:24.683Z,14.76
2023-01-02T20:59:26.535Z,14.87
2023-01-02T21:06:28.465Z,14.75
2023-01-02T21:13:30.105Z,14.70
2023-01-02T21:20:31.704Z,14.72
2023-01-02T21:27:33.312Z,14.59
2023-01-02T21:34:34.940Z,14.58
2023-01-02T21:41:55.326Z,14.50
2023-01-02T21:48:57.028Z,14.53
2023-01-02T21:55:58.654Z,14.20
2023-01-02T22:03:00.364Z,14.22
2023-01-02T22:10:02.162Z,14.01
2023-01-02T22:17:08.497Z,13.99
2023-01-02T22:24:10.260Z,13.96
2023-01-02T22:31:12.119Z,14.06
2023-01-02T22:38:13.949Z,13.87
2023-01-02T22:45:20.379Z,13.80
2023-01-02T22:52:21.976Z,13.73
2023-01-02T22:59:23.557Z,13.82
2023-01-02T23:06:25.306Z,13.51
2023-01-02T23:13:27.084Z,13.64
2023-01-02T23:20:28.866Z,13.68
2023-01-02T23:27:30.525Z,13.55
2023-01-02T23:34:32.167Z,13.57
2023-01-02T23:41:34.462Z,13.41
2023-01-02T23:48:36.736Z,13.52
2023-01-02T23:55:42.914Z,13.35
